Time;durP1;ratioP1;P1;durP2;ratioP2;P2;SDS_P1;SDS_P2;PMS_P1;PMS_P2;Temp;Humidity;BMP_temperature;BMP_pressure;BME280_temperature;BME280_humidity;BME280_pressure;Samples;Min_cycle;Max_cycle;Signal;HPM_P1;HPM_P2
2022/04/30 00:00:21;;;;;;;;;;;16.90;99.30;;;;;;5053282;28;19931;-69
2022/04/30 00:02:47;;;;;;;;;;;16.80;98.90;;;;;;5053684;28;19915;-68
2022/04/30 00:05:14;;;;;;;;;;;16.70;98.80;;;;;;5052988;28;19912;-68
2022/04/30 00:07:40;;;;;;;;;;;16.70;99.00;;;;;;5034995;28;19916;-68
2022/04/30 00:10:06;;;;;;;;;;;16.70;99.20;;;;;;5053182;28;19917;-69
2022/04/30 00:12:32;;;;;;;;;;;16.70;98.80;;;;;;5053039;28;19978;-69
2022/04/30 00:14:58;;;;;;;;;;;16.70;98.90;;;;;;5053150;28;20309;-69
2022/04/30 00:17:24;;;;;;;;;;;16.70;99.10;;;;;;5034846;28;20416;-69
2022/04/30 00:19:50;;;;;;;;;;;16.70;98.80;;;;;;5052878;28;20249;-69
2022/04/30 00:22:16;;;;;;;;;;;16.70;98.70;;;;;;5052867;28;19953;-69
2022/04/30 00:24:42;;;;;;;;;;;16.70;99.10;;;;;;5052872;28;19909;-69
2022/04/30 00:27:10;;;;;;;;;;;16.70;99.10;;;;;;5053265;28;20324;-69
2022/04/30 00:29:36;;;;;;;;;;;16.70;98.50;;;;;;5052751;28;19935;-68
2022/04/30 00:32:03;;;;;;;;;;;16.70;99.60;;;;;;5052734;28;20276;-68
2022/04/30 00:34:28;;;;;;;;;;;16.60;98.70;;;;;;5052208;28;20019;-69
2022/04/30 00:36:55;;;;;;;;;;;16.40;98.80;;;;;;5052679;28;19959;-68
2022/04/30 00:39:21;;;;;;;;;;;16.40;98.60;;;;;;5052898;28;20265;-69
2022/04/30 00:41:47;;;;;;;;;;;16.30;97.70;;;;;;5052973;28;19999;-69
2022/04/30 00:44:19;;;;;;;;;;;16.30;98.20;;;;;;5052345;28;19913;-67
2022/04/30 00:46:45;;;;;;;;;;;16.30;98.20;;;;;;5052777;28;19909;-69
2022/04/30 00:49:11;;;;;;;;;;;16.40;98.20;;;;;;5052689;28;20222;-69
2022/04/30 00:51:39;;;;;;;;;;;16.30;97.50;;;;;;5052102;28;19958;-69
2022/04/30 00:54:05;;;;;;;;;;;16.30;96.90;;;;;;5034190;28;19909;-69
2022/04/30 00:56:43;;;;;;;;;;;16.30;96.90;;;;;;5052566;28;20007;-69
2022/04/30 00:59:10;;;;;;;;;;;16.40;96.90;;;;;;5051883;28;19916;-68
2022/04/30 01:01:36;;;;;;;;;;;16.40;96.60;;;;;;5052390;28;19909;-68
2022/04/30 01:04:03;;;;;;;;;;;16.40;96.60;;;;;;5052047;28;19927;-69
2022/04/30 01:06:50;;;;;;;;;;;16.30;96.30;;;;;;5052251;28;20318;-69
2022/04/30 01:09:23;;;;;;;;;;;16.30;96.20;;;;;;5051846;28;20349;-69
2022/04/30 01:11:52;;;;;;;;;;;16.40;95.40;;;;;;5052223;28;20424;-69
2022/04/30 01:14:18;;;;;;;;;;;16.40;95.90;;;;;;5052101;28;19931;-68
2022/04/30 01:16:45;;;;;;;;;;;16.40;96.30;;;;;;5033614;28;19966;-68
2022/04/30 01:19:16;;;;;;;;;;;16.40;96.40;;;;;;5051723;28;19908;-68
2022/04/30 01:21:42;;;;;;;;;;;16.30;96.50;;;;;;5052027;28;20321;-68
2022/04/30 01:24:09;;;;;;;;;;;16.30;96.70;;;;;;5051534;28;19996;-68
2022/04/30 01:26:35;;;;;;;;;;;16.30;97.20;;;;;;5051969;28;20071;-69
2022/04/30 01:29:01;;;;;;;;;;;16.30;97.10;;;;;;5051786;28;19919;-68
2022/04/30 01:39:40;;;;;;;;;;;16.30;97.20;;;;;;5051552;28;20277;-70
2022/04/30 01:42:11;;;;;;;;;;;16.20;97.30;;;;;;5052095;28;20345;-70
2022/04/30 01:44:40;;;;;;;;;;;16.20;97.40;;;;;;5051685;28;20333;-70
2022/04/30 01:47:06;;;;;;;;;;;16.20;97.00;;;;;;5051650;28;19909;-69
2022/04/30 01:49:32;;;;;;;;;;;16.20;97.10;;;;;;5051089;28;19917;-69
2022/04/30 01:51:58;;;;;;;;;;;16.30;97.50;;;;;;5033153;28;19981;-69
2022/04/30 01:54:24;;;;;;;;;;;16.30;97.70;;;;;;5033648;28;20273;-69
2022/04/30 01:56:49;;;;;;;;;;;16.20;97.80;;;;;;5051095;28;19919;-69
2022/04/30 01:59:15;;;;;;;;;;;16.20;98.00;;;;;;5051070;28;19908;-69
2022/04/30 02:01:43;;;;;;;;;;;16.10;98.10;;;;;;5051286;28;20081;-68
2022/04/30 02:04:09;;;;;;;;;;;16.10;98.10;;;;;;5050889;28;19917;-69
2022/04/30 02:06:35;;;;;;;;;;;16.10;98.40;;;;;;5051161;28;19916;-69
2022/04/30 02:09:00;;;;;;;;;;;16.10;98.40;;;;;;5032767;28;19917;-69
2022/04/30 02:11:26;;;;;;;;;;;16.00;98.30;;;;;;5051073;28;20276;-69
2022/04/30 02:13:53;;;;;;;;;;;16.00;98.10;;;;;;5051434;28;19975;-69
2022/04/30 02:16:22;;;;;;;;;;;16.00;98.00;;;;;;5033120;28;19909;-68
2022/04/30 02:18:49;;;;;;;;;;;16.00;97.90;;;;;;5050796;28;19909;-69
2022/04/30 02:21:17;;;;;;;;;;;16.10;97.90;;;;;;5050155;28;19955;-69
2022/04/30 02:23:43;;;;;;;;;;;16.10;98.00;;;;;;5049835;28;19978;-69
2022/04/30 02:26:09;;;;;;;;;;;16.10;97.80;;;;;;5050478;28;19955;-68
2022/04/30 02:28:36;;;;;;;;;;;16.10;98.00;;;;;;5050350;28;19909;-68
2022/04/30 02:31:02;;;;;;;;;;;16.00;97.70;;;;;;5032201;28;20436;-69
2022/04/30 02:33:28;;;;;;;;;;;16.10;97.40;;;;;;5050426;28;19912;-68
2022/04/30 02:35:56;;;;;;;;;;;16.10;97.70;;;;;;5050082;28;21003;-69
2022/04/30 02:38:22;;;;;;;;;;;16.10;97.90;;;;;;5032273;28;20210;-69
2022/04/30 02:40:48;;;;;;;;;;;16.20;98.00;;;;;;5050644;28;19962;-68
2022/04/30 02:43:19;;;;;;;;;;;16.20;98.10;;;;;;5050635;28;20003;-68
2022/04/30 02:45:46;;;;;;;;;;;16.20;98.00;;;;;;5050850;28;19960;-68
2022/04/30 02:48:13;;;;;;;;;;;16.10;98.00;;;;;;5050472;28;19986;-69
2022/04/30 02:50:39;;;;;;;;;;;16.10;98.10;;;;;;5050405;28;20341;-68
2022/04/30 02:53:05;;;;;;;;;;;16.10;98.40;;;;;;5032294;28;20062;-69
2022/04/30 02:55:31;;;;;;;;;;;16.10;98.30;;;;;;5050418;28;19909;-69
2022/04/30 03:00:41;;;;;;;;;;;16.00;97.80;;;;;;5054349;28;19916;-69
2022/04/30 03:03:09;;;;;;;;;;;15.90;97.60;;;;;;5054168;28;20004;-68
2022/04/30 03:05:35;;;;;;;;;;;15.90;97.60;;;;;;5054367;28;19909;-68
2022/04/30 03:08:04;;;;;;;;;;;15.80;97.90;;;;;;5055095;28;19915;-69
2022/04/30 03:10:30;;;;;;;;;;;15.80;98.90;;;;;;5054700;28;19974;-69
2022/04/30 03:12:56;;;;;;;;;;;15.70;99.60;;;;;;5055030;28;19913;-69
2022/04/30 03:15:22;;;;;;;;;;;15.60;99.90;;;;;;5054644;28;19908;-68
2022/04/30 03:23:16;;;;;;;;;;;15.60;99.90;;;;;;5055286;28;19931;-69
2022/04/30 03:25:44;;;;;;;;;;;15.60;99.70;;;;;;5055686;28;20367;-69
2022/04/30 03:28:10;;;;;;;;;;;15.50;99.40;;;;;;5055357;28;20342;-69
2022/04/30 03:30:36;;;;;;;;;;;15.50;99.10;;;;;;5055587;28;19917;-69
2022/04/30 03:33:02;;;;;;;;;;;15.50;99.00;;;;;;5055320;28;19909;-69
2022/04/30 03:35:28;;;;;;;;;;;15.60;98.90;;;;;;5055157;28;19916;-69
2022/04/30 03:37:54;;;;;;;;;;;15.60;99.00;;;;;;5055022;28;19966;-69
2022/04/30 03:40:21;;;;;;;;;;;15.60;98.90;;;;;;5055160;28;19909;-68
2022/04/30 03:42:48;;;;;;;;;;;15.60;98.60;;;;;;5054025;28;19916;-69
2022/04/30 03:45:14;;;;;;;;;;;15.60;98.60;;;;;;5053787;28;20046;-69
2022/04/30 03:47:40;;;;;;;;;;;15.60;98.20;;;;;;5053185;28;20041;-69
2022/04/30 03:50:07;;;;;;;;;;;15.50;99.10;;;;;;5053556;28;19928;-68
2022/04/30 03:52:33;;;;;;;;;;;15.50;99.90;;;;;;5053925;28;19909;-69
2022/04/30 03:54:59;;;;;;;;;;;15.40;99.90;;;;;;5053651;28;20352;-68
2022/04/30 03:57:25;;;;;;;;;;;15.40;99.90;;;;;;5053655;28;19915;-69
2022/04/30 03:59:51;;;;;;;;;;;15.40;99.90;;;;;;5053639;28;19908;-69
2022/04/30 04:02:18;;;;;;;;;;;15.30;99.90;;;;;;5054233;28;19936;-69
2022/04/30 04:04:45;;;;;;;;;;;15.20;99.90;;;;;;5054121;28;19934;-69
2022/04/30 04:07:10;;;;;;;;;;;15.20;99.90;;;;;;5053242;28;19920;-69
2022/04/30 04:09:36;;;;;;;;;;;15.30;99.90;;;;;;5053808;28;20003;-69
2022/04/30 04:12:02;;;;;;;;;;;15.30;99.90;;;;;;5054010;28;20283;-69
2022/04/30 04:19:58;;;;;;;;;;;15.10;99.90;;;;;;5055070;28;19915;-69
2022/04/30 04:22:23;;;;;;;;;;;15.10;99.90;;;;;;5055015;28;19913;-68
2022/04/30 04:27:34;;;;;;;;;;;15.10;99.90;;;;;;5054615;28;20007;-69
2022/04/30 04:30:00;;;;;;;;;;;15.10;99.90;;;;;;5037312;28;20015;-68
2022/04/30 04:32:26;;;;;;;;;;;15.00;99.90;;;;;;5054709;28;19908;-69
2022/04/30 04:34:52;;;;;;;;;;;15.00;99.90;;;;;;5036627;28;19909;-68
2022/04/30 04:37:18;;;;;;;;;;;15.00;99.90;;;;;;5033076;28;19928;-69
2022/04/30 04:39:44;;;;;;;;;;;15.10;99.90;;;;;;5034616;28;20027;-69
2022/04/30 04:42:10;;;;;;;;;;;15.20;99.90;;;;;;5034656;28;20345;-69
2022/04/30 04:44:36;;;;;;;;;;;15.20;99.90;;;;;;5035197;28;19910;-69
2022/04/30 04:47:02;;;;;;;;;;;15.30;99.90;;;;;;5034778;28;20476;-69
2022/04/30 04:49:30;;;;;;;;;;;15.40;99.90;;;;;;5034355;28;19917;-70
2022/04/30 04:51:56;;;;;;;;;;;15.50;99.90;;;;;;5034552;28;19909;-70
2022/04/30 04:54:22;;;;;;;;;;;15.50;99.90;;;;;;5034555;28;19909;-70
2022/04/30 04:56:48;;;;;;;;;;;15.70;99.90;;;;;;5034804;28;19909;-70
2022/04/30 04:59:14;;;;;;;;;;;15.70;99.90;;;;;;5034468;28;19919;-70
2022/04/30 05:01:40;;;;;;;;;;;15.70;99.90;;;;;;5034421;28;19909;-70
2022/04/30 05:04:09;;;;;;;;;;;15.70;99.90;;;;;;5034439;28;19909;-69
2022/04/30 05:06:37;;;;;;;;;;;15.80;99.70;;;;;;5034279;28;19909;-70
2022/04/30 05:09:03;;;;;;;;;;;15.80;99.40;;;;;;5032505;28;19916;-69
2022/04/30 05:12:07;;;;;;;;;;;15.90;99.10;;;;;;5032112;28;19929;-66
2022/04/30 05:14:52;;;;;;;;;;;16.20;98.50;;;;;;5032140;28;19909;-68
2022/04/30 05:17:18;;;;;;;;;;;17.10;97.40;;;;;;5030934;28;19988;-66
2022/04/30 05:19:44;;;;;;;;;;;17.90;95.70;;;;;;5033480;28;19917;-68
2022/04/30 05:22:09;;;;;;;;;;;18.60;94.60;;;;;;5020641;28;20346;-69
2022/04/30 05:24:35;;;;;;;;;;;18.90;93.60;;;;;;5024261;28;20000;-66
2022/04/30 05:27:01;;;;;;;;;;;19.30;92.90;;;;;;5021877;28;19964;-66
2022/04/30 05:29:27;;;;;;;;;;;19.70;92.20;;;;;;5029530;28;20334;-68
2022/04/30 05:31:53;;;;;;;;;;;20.20;91.70;;;;;;5032644;28;19935;-69
2022/04/30 05:34:19;;;;;;;;;;;20.80;90.60;;;;;;5031979;28;19958;-69
2022/04/30 05:36:45;;;;;;;;;;;21.10;89.40;;;;;;5042174;28;20012;-69
2022/04/30 05:39:11;;;;;;;;;;;21.50;88.60;;;;;;5051264;28;20019;-70
2022/04/30 05:41:37;;;;;;;;;;;22.00;86.80;;;;;;5052200;28;19909;-69
2022/04/30 05:44:02;;;;;;;;;;;22.70;84.40;;;;;;5045163;28;19936;-66
2022/04/30 05:46:28;;;;;;;;;;;23.30;82.60;;;;;;5040866;28;19952;-69
2022/04/30 05:48:54;;;;;;;;;;;23.70;80.80;;;;;;5032286;28;19913;-69
2022/04/30 05:51:20;;;;;;;;;;;24.00;80.20;;;;;;5029081;28;19913;-66
2022/04/30 05:53:46;;;;;;;;;;;24.20;79.80;;;;;;5014250;28;19910;-69
2022/04/30 05:56:12;;;;;;;;;;;24.40;78.40;;;;;;5031640;28;19920;-68
2022/04/30 05:58:38;;;;;;;;;;;25.10;77.30;;;;;;5031265;28;19909;-69
2022/04/30 06:01:04;;;;;;;;;;;25.60;75.90;;;;;;5031478;28;20012;-68
2022/04/30 06:03:31;;;;;;;;;;;26.00;75.20;;;;;;5030756;28;19953;-70
2022/04/30 06:05:57;;;;;;;;;;;26.50;73.60;;;;;;5031425;28;19909;-69
2022/04/30 06:08:23;;;;;;;;;;;25.80;74.80;;;;;;5031582;28;20000;-69
2022/04/30 06:10:49;;;;;;;;;;;25.40;75.90;;;;;;5030585;28;20369;-69
2022/04/30 06:13:15;;;;;;;;;;;25.50;76.60;;;;;;5031191;28;19910;-77
2022/04/30 06:15:41;;;;;;;;;;;26.10;75.60;;;;;;5030540;28;20373;-76
2022/04/30 06:18:08;;;;;;;;;;;26.40;74.70;;;;;;5030608;28;19992;-73
2022/04/30 06:20:34;;;;;;;;;;;27.30;73.50;;;;;;5032383;28;19913;-71
2022/04/30 06:23:00;;;;;;;;;;;27.70;73.90;;;;;;5032435;28;19913;-72
2022/04/30 06:25:26;;;;;;;;;;;27.30;72.50;;;;;;5032593;28;20003;-71
2022/04/30 06:27:52;;;;;;;;;;;27.90;72.30;;;;;;5031911;28;19909;-70
2022/04/30 06:30:18;;;;;;;;;;;28.70;70.20;;;;;;5030608;28;19917;-70
2022/04/30 06:32:44;;;;;;;;;;;28.50;69.20;;;;;;5035983;28;20310;-69
2022/04/30 06:35:10;;;;;;;;;;;27.80;71.20;;;;;;5036354;28;19909;-69
2022/04/30 06:37:35;;;;;;;;;;;26.90;70.00;;;;;;5052624;28;19921;-70
2022/04/30 06:40:02;;;;;;;;;;;26.10;73.30;;;;;;5056201;28;20078;-69
2022/04/30 06:42:27;;;;;;;;;;;25.20;74.80;;;;;;5056400;28;20270;-71
2022/04/30 06:44:54;;;;;;;;;;;24.80;75.70;;;;;;5056335;28;19974;-70
2022/04/30 06:47:21;;;;;;;;;;;23.80;78.50;;;;;;5056499;28;19909;-70
2022/04/30 06:49:47;;;;;;;;;;;23.00;81.70;;;;;;5055878;28;19913;-71
2022/04/30 06:52:12;;;;;;;;;;;22.50;83.60;;;;;;5037863;28;20361;-71
2022/04/30 06:57:22;;;;;;;;;;;21.50;87.00;;;;;;5056182;28;19916;-70
2022/04/30 06:59:52;;;;;;;;;;;21.00;88.30;;;;;;5055728;28;20014;-70
2022/04/30 07:04:46;;;;;;;;;;;20.90;88.80;;;;;;5055706;28;19912;-70
2022/04/30 07:07:13;;;;;;;;;;;21.30;86.10;;;;;;5055838;28;19916;-69
2022/04/30 07:09:39;;;;;;;;;;;22.30;83.90;;;;;;5055141;28;20000;-70
2022/04/30 07:12:06;;;;;;;;;;;23.50;79.50;;;;;;5054926;28;19913;-69
2022/04/30 07:14:35;;;;;;;;;;;24.50;76.70;;;;;;5048807;28;20268;-70
2022/04/30 07:17:05;;;;;;;;;;;25.30;72.90;;;;;;5055482;28;19953;-77
2022/04/30 07:19:31;;;;;;;;;;;25.40;71.50;;;;;;5055147;28;19916;-70
2022/04/30 07:21:57;;;;;;;;;;;25.60;71.80;;;;;;5055204;28;20001;-70
2022/04/30 07:24:22;;;;;;;;;;;25.80;70.90;;;;;;5053537;28;19909;-69
2022/04/30 07:26:48;;;;;;;;;;;26.10;70.80;;;;;;5055391;28;19916;-69
2022/04/30 07:29:14;;;;;;;;;;;26.60;69.70;;;;;;5054556;28;20027;-70
2022/04/30 07:31:46;;;;;;;;;;;26.80;69.20;;;;;;5054931;28;19999;-70
2022/04/30 07:34:12;;;;;;;;;;;26.90;66.30;;;;;;5055049;28;20068;-70
2022/04/30 07:36:38;;;;;;;;;;;27.00;66.70;;;;;;5054526;28;19916;-69
2022/04/30 07:39:04;;;;;;;;;;;26.70;65.70;;;;;;5054673;28;19920;-70
2022/04/30 07:41:30;;;;;;;;;;;26.50;67.10;;;;;;5055179;28;20007;-69
2022/04/30 07:43:56;;;;;;;;;;;26.50;66.80;;;;;;5054463;28;19954;-69
2022/04/30 07:46:24;;;;;;;;;;;26.30;67.20;;;;;;5053304;28;19909;-71
2022/04/30 07:48:50;;;;;;;;;;;26.40;66.80;;;;;;5052001;28;19916;-72
2022/04/30 07:51:19;;;;;;;;;;;26.40;67.10;;;;;;5053428;28;19940;-71
2022/04/30 07:53:45;;;;;;;;;;;26.20;67.40;;;;;;5053812;28;19939;-71
2022/04/30 07:56:11;;;;;;;;;;;26.40;66.90;;;;;;5053724;28;20233;-71
2022/04/30 07:58:37;;;;;;;;;;;26.70;67.30;;;;;;5053418;28;19915;-72
2022/04/30 08:01:03;;;;;;;;;;;26.60;66.00;;;;;;5053283;28;19909;-72
2022/04/30 08:03:29;;;;;;;;;;;26.00;66.40;;;;;;5053493;28;19916;-72
2022/04/30 08:05:54;;;;;;;;;;;25.80;67.30;;;;;;5053943;28;20003;-72
2022/04/30 08:08:23;;;;;;;;;;;25.60;67.50;;;;;;5053187;28;19949;-71
2022/04/30 08:10:49;;;;;;;;;;;25.80;67.10;;;;;;5053365;28;19940;-72
2022/04/30 08:13:15;;;;;;;;;;;25.90;68.70;;;;;;5052985;28;20379;-70
2022/04/30 08:15:43;;;;;;;;;;;26.20;67.70;;;;;;5053145;28;19962;-72
2022/04/30 08:18:09;;;;;;;;;;;26.30;66.60;;;;;;5054223;28;19944;-71
2022/04/30 08:20:37;;;;;;;;;;;26.60;66.70;;;;;;5054427;28;19913;-71
2022/04/30 08:23:04;;;;;;;;;;;26.80;66.60;;;;;;5054547;28;20324;-74
2022/04/30 08:25:29;;;;;;;;;;;26.90;66.00;;;;;;5054192;28;19992;-73
2022/04/30 08:27:55;;;;;;;;;;;27.10;66.00;;;;;;5051890;28;19975;-72
2022/04/30 08:30:21;;;;;;;;;;;27.20;65.60;;;;;;5053274;28;20375;-72
2022/04/30 08:32:50;;;;;;;;;;;26.90;64.30;;;;;;5052517;28;19913;-71
2022/04/30 08:35:16;;;;;;;;;;;27.00;64.90;;;;;;5053777;28;19916;-71
2022/04/30 08:37:42;;;;;;;;;;;26.70;63.50;;;;;;5054072;28;19921;-71
2022/04/30 08:40:09;;;;;;;;;;;26.40;64.60;;;;;;5054616;28;19909;-72
2022/04/30 08:42:35;;;;;;;;;;;26.10;64.40;;;;;;5053629;28;19923;-70
2022/04/30 08:45:04;;;;;;;;;;;25.90;65.70;;;;;;5053233;28;19909;-70
2022/04/30 08:47:51;;;;;;;;;;;26.00;66.30;;;;;;5051607;28;19967;-71
2022/04/30 08:50:17;;;;;;;;;;;26.00;66.50;;;;;;5050798;28;20376;-70
2022/04/30 08:52:43;;;;;;;;;;;26.10;66.40;;;;;;5053386;28;19908;-72
2022/04/30 08:55:09;;;;;;;;;;;26.00;65.90;;;;;;5052680;28;19909;-71
2022/04/30 08:57:35;;;;;;;;;;;26.00;66.30;;;;;;5053132;28;20330;-72
2022/04/30 09:00:01;;;;;;;;;;;25.40;65.40;;;;;;5053592;28;20010;-72
2022/04/30 09:02:27;;;;;;;;;;;25.40;66.40;;;;;;5053289;28;19915;-73
2022/04/30 09:04:54;;;;;;;;;;;25.10;67.60;;;;;;5052804;28;19995;-72
2022/04/30 09:07:21;;;;;;;;;;;24.90;66.50;;;;;;5052750;28;20035;-71
2022/04/30 09:09:54;;;;;;;;;;;24.80;67.70;;;;;;5052969;28;19923;-72
2022/04/30 09:12:21;;;;;;;;;;;24.80;67.60;;;;;;5052715;28;19962;-73
2022/04/30 09:14:47;;;;;;;;;;;24.60;67.60;;;;;;5053068;28;19939;-72
2022/04/30 09:17:14;;;;;;;;;;;24.30;68.20;;;;;;5052838;28;19916;-71
2022/04/30 09:19:54;;;;;;;;;;;24.40;69.50;;;;;;5052442;28;20031;-72
2022/04/30 09:22:30;;;;;;;;;;;24.70;68.60;;;;;;5052937;28;20316;-71
2022/04/30 09:24:56;;;;;;;;;;;24.60;68.60;;;;;;5052785;28;19927;-71
2022/04/30 09:27:22;;;;;;;;;;;24.60;68.60;;;;;;5052793;28;19988;-72
2022/04/30 09:29:47;;;;;;;;;;;24.60;68.00;;;;;;5052507;28;19913;-71
2022/04/30 09:32:17;;;;;;;;;;;24.70;69.50;;;;;;5052769;28;20237;-72
2022/04/30 09:37:45;;;;;;;;;;;24.90;68.00;;;;;;5045488;28;20387;-71
2022/04/30 09:40:14;;;;;;;;;;;24.80;67.90;;;;;;5050949;28;19908;-72
2022/04/30 09:42:43;;;;;;;;;;;25.00;68.70;;;;;;5052307;28;19944;-72
2022/04/30 09:45:21;;;;;;;;;;;25.00;69.40;;;;;;5051838;28;20003;-72
2022/04/30 09:47:47;;;;;;;;;;;25.10;69.20;;;;;;5052614;28;20407;-72
2022/04/30 09:55:42;;;;;;;;;;;25.30;67.60;;;;;;5052151;28;19974;-72
2022/04/30 09:58:09;;;;;;;;;;;25.50;66.80;;;;;;5052218;28;20357;-71
2022/04/30 10:00:35;;;;;;;;;;;25.50;67.20;;;;;;5051843;28;19932;-72
2022/04/30 10:03:01;;;;;;;;;;;25.50;66.70;;;;;;5049866;28;19913;-73
2022/04/30 10:05:29;;;;;;;;;;;25.30;67.70;;;;;;5051269;28;19933;-72
2022/04/30 10:07:55;;;;;;;;;;;25.60;66.70;;;;;;5051270;28;19955;-70
2022/04/30 10:10:25;;;;;;;;;;;25.70;67.00;;;;;;5050134;28;20353;-72
2022/04/30 10:13:03;;;;;;;;;;;25.50;66.20;;;;;;5051538;28;19909;-72
2022/04/30 10:15:31;;;;;;;;;;;25.50;66.20;;;;;;5051023;28;19921;-71
2022/04/30 10:17:57;;;;;;;;;;;25.50;66.50;;;;;;5050801;28;19920;-72
2022/04/30 10:20:29;;;;;;;;;;;25.60;66.70;;;;;;5051108;28;19908;-72
2022/04/30 10:22:59;;;;;;;;;;;25.60;67.30;;;;;;5051750;28;19929;-71
2022/04/30 10:25:32;;;;;;;;;;;25.60;66.20;;;;;;5051690;28;20009;-71
2022/04/30 10:27:58;;;;;;;;;;;24.90;67.50;;;;;;5051444;28;19909;-73
2022/04/30 10:30:24;;;;;;;;;;;25.00;68.40;;;;;;5051000;28;19947;-72
2022/04/30 10:33:03;;;;;;;;;;;25.20;68.10;;;;;;5050883;28;19920;-70
2022/04/30 10:35:29;;;;;;;;;;;24.60;68.10;;;;;;5050394;28;19909;-71
2022/04/30 10:38:05;;;;;;;;;;;24.80;69.00;;;;;;5050359;28;19924;-70
2022/04/30 10:40:42;;;;;;;;;;;24.90;69.30;;;;;;5050891;28;19915;-71
2022/04/30 10:43:14;;;;;;;;;;;24.80;69.30;;;;;;5049119;28;20262;-72
2022/04/30 10:45:53;;;;;;;;;;;25.20;68.00;;;;;;5051057;28;19963;-71
2022/04/30 10:48:20;;;;;;;;;;;25.40;68.00;;;;;;5050950;28;20013;-70
2022/04/30 10:50:47;;;;;;;;;;;25.40;67.70;;;;;;5050675;28;20037;-70
2022/04/30 10:53:13;;;;;;;;;;;25.50;67.30;;;;;;5051671;28;19909;-71
2022/04/30 10:55:40;;;;;;;;;;;25.40;67.20;;;;;;5051240;28;19944;-71
2022/04/30 10:58:06;;;;;;;;;;;25.40;67.20;;;;;;5049818;28;20007;-72
2022/04/30 11:00:32;;;;;;;;;;;25.20;67.20;;;;;;5050297;28;19963;-71
2022/04/30 11:03:08;;;;;;;;;;;25.30;68.40;;;;;;5050331;28;19948;-71
2022/04/30 11:05:35;;;;;;;;;;;25.30;67.90;;;;;;5049497;28;19944;-71
2022/04/30 11:08:01;;;;;;;;;;;25.20;68.80;;;;;;5051711;28;19936;-71
2022/04/30 11:10:27;;;;;;;;;;;25.10;68.90;;;;;;5050984;28;19921;-72
2022/04/30 11:13:05;;;;;;;;;;;25.20;68.80;;;;;;5051248;28;19995;-72
2022/04/30 11:15:31;;;;;;;;;;;25.40;68.60;;;;;;5050930;28;19955;-72
2022/04/30 11:17:58;;;;;;;;;;;25.60;68.50;;;;;;5053373;28;20002;-73
2022/04/30 11:20:24;;;;;;;;;;;25.70;68.00;;;;;;5055448;28;19945;-72
2022/04/30 11:22:54;;;;;;;;;;;25.70;67.50;;;;;;5055704;28;20003;-73
2022/04/30 11:25:20;;;;;;;;;;;25.70;67.00;;;;;;5055325;28;20042;-72
2022/04/30 11:27:46;;;;;;;;;;;25.40;67.90;;;;;;5055190;28;19941;-72
2022/04/30 11:30:13;;;;;;;;;;;25.40;67.40;;;;;;5055291;28;19917;-73
2022/04/30 11:32:39;;;;;;;;;;;25.60;67.60;;;;;;5055632;28;19909;-72
2022/04/30 11:35:05;;;;;;;;;;;25.50;68.30;;;;;;5055394;28;19954;-72
2022/04/30 11:37:40;;;;;;;;;;;25.40;68.60;;;;;;5055194;28;20427;-73
2022/04/30 11:40:07;;;;;;;;;;;25.40;67.90;;;;;;5054014;28;20007;-72
2022/04/30 11:42:33;;;;;;;;;;;25.50;68.80;;;;;;5055086;28;19916;-72
2022/04/30 11:44:58;;;;;;;;;;;25.30;69.10;;;;;;5055411;28;20339;-79
2022/04/30 11:47:24;;;;;;;;;;;25.20;69.50;;;;;;5054981;28;19983;-72
2022/04/30 11:50:02;;;;;;;;;;;25.30;68.60;;;;;;5055014;28;19921;-72
2022/04/30 11:52:28;;;;;;;;;;;25.10;68.40;;;;;;5054958;28;19909;-72
2022/04/30 11:54:53;;;;;;;;;;;25.30;68.20;;;;;;5055560;28;19957;-72
2022/04/30 11:57:21;;;;;;;;;;;25.30;67.40;;;;;;5055492;28;20272;-72
2022/04/30 11:59:48;;;;;;;;;;;25.30;67.70;;;;;;5055514;28;20001;-72
2022/04/30 12:02:14;;;;;;;;;;;25.30;67.70;;;;;;5054870;28;19914;-72
2022/04/30 12:04:41;;;;;;;;;;;25.10;68.20;;;;;;5055381;28;19916;-73
2022/04/30 12:07:07;;;;;;;;;;;25.20;69.00;;;;;;5055218;28;19915;-73
2022/04/30 12:09:37;;;;;;;;;;;25.20;68.50;;;;;;5055049;28;19916;-71
2022/04/30 12:12:13;;;;;;;;;;;25.20;69.20;;;;;;5053786;28;20350;-72
2022/04/30 12:14:43;;;;;;;;;;;25.20;68.90;;;;;;5053450;28;20003;-71
2022/04/30 12:17:08;;;;;;;;;;;25.10;68.40;;;;;;5054529;28;19952;-72
2022/04/30 12:25:32;;;;;;;;;;;25.10;70.20;;;;;;4974115;28;19917;-72
2022/04/30 12:27:59;;;;;;;;;;;25.30;69.90;;;;;;4973925;28;19910;-71
2022/04/30 12:30:26;;;;;;;;;;;25.40;69.30;;;;;;4981704;28;20374;-72
2022/04/30 12:32:53;;;;;;;;;;;25.40;68.80;;;;;;4993626;28;20486;-72
2022/04/30 12:35:27;;;;;;;;;;;25.60;68.20;;;;;;4993125;28;20385;-72
2022/04/30 12:38:03;;;;;;;;;;;25.70;68.20;;;;;;4993170;28;19938;-72
2022/04/30 12:40:29;;;;;;;;;;;25.80;67.80;;;;;;4993750;28;19910;-72
2022/04/30 12:42:55;;;;;;;;;;;25.70;68.60;;;;;;4993213;28;20025;-71
2022/04/30 12:45:21;;;;;;;;;;;25.50;68.00;;;;;;4993241;28;19965;-71
2022/04/30 12:47:49;;;;;;;;;;;25.40;68.20;;;;;;4993668;28;19913;-71
2022/04/30 12:50:16;;;;;;;;;;;25.10;68.70;;;;;;4993082;28;20003;-70
2022/04/30 12:52:42;;;;;;;;;;;25.20;68.60;;;;;;4993595;28;19937;-71
2022/04/30 12:55:09;;;;;;;;;;;25.30;67.90;;;;;;4993145;28;20009;-70
2022/04/30 12:57:37;;;;;;;;;;;25.40;68.20;;;;;;4992950;28;20460;-71
2022/04/30 13:00:04;;;;;;;;;;;25.40;67.80;;;;;;5030138;28;19909;-71
2022/04/30 13:02:30;;;;;;;;;;;25.40;67.30;;;;;;5053192;28;19909;-69
2022/04/30 13:04:56;;;;;;;;;;;25.50;67.10;;;;;;5051513;28;19921;-71
2022/04/30 13:07:22;;;;;;;;;;;25.60;66.60;;;;;;5034813;28;19909;-71
2022/04/30 13:15:16;;;;;;;;;;;25.30;66.00;;;;;;5042088;28;19982;-68
2022/04/30 13:17:42;;;;;;;;;;;25.10;66.80;;;;;;5054066;28;19909;-71
2022/04/30 13:20:10;;;;;;;;;;;25.00;66.30;;;;;;5052717;28;19978;-70
2022/04/30 13:22:36;;;;;;;;;;;25.10;66.80;;;;;;5053976;28;20253;-72
2022/04/30 13:25:03;;;;;;;;;;;25.10;66.70;;;;;;5053918;28;19909;-71
2022/04/30 13:27:30;;;;;;;;;;;25.10;67.10;;;;;;5054011;28;19908;-71
2022/04/30 13:29:56;;;;;;;;;;;25.30;67.00;;;;;;5053840;28;20403;-71
2022/04/30 13:32:22;;;;;;;;;;;25.00;66.70;;;;;;5052544;28;19909;-70
2022/04/30 13:34:47;;;;;;;;;;;24.80;67.10;;;;;;5053144;28;19909;-70
2022/04/30 13:37:13;;;;;;;;;;;24.80;66.50;;;;;;5053720;28;19921;-71
2022/04/30 13:39:39;;;;;;;;;;;24.70;67.80;;;;;;5053357;28;19976;-71
2022/04/30 13:42:05;;;;;;;;;;;24.70;67.50;;;;;;5053663;28;19961;-69
2022/04/30 13:44:31;;;;;;;;;;;24.80;67.80;;;;;;5053846;28;20094;-70
2022/04/30 13:46:57;;;;;;;;;;;24.90;67.70;;;;;;5053323;28;20013;-71
2022/04/30 13:49:23;;;;;;;;;;;24.90;67.50;;;;;;5052416;28;19909;-71
2022/04/30 13:51:48;;;;;;;;;;;24.90;67.40;;;;;;5052438;28;19909;-71
2022/04/30 13:54:14;;;;;;;;;;;25.00;67.10;;;;;;5052844;28;20420;-70
2022/04/30 13:56:53;;;;;;;;;;;25.10;66.90;;;;;;5051032;28;19909;-71
2022/04/30 13:59:24;;;;;;;;;;;24.90;66.90;;;;;;5052427;28;19913;-72
2022/04/30 14:01:50;;;;;;;;;;;24.90;66.40;;;;;;5052966;28;19928;-71
2022/04/30 14:04:15;;;;;;;;;;;24.80;66.40;;;;;;5051468;28;19919;-71
2022/04/30 14:06:41;;;;;;;;;;;24.70;66.40;;;;;;5051876;28;20264;-72
2022/04/30 14:09:07;;;;;;;;;;;24.70;66.50;;;;;;5052094;28;19916;-71
2022/04/30 14:11:33;;;;;;;;;;;24.60;64.50;;;;;;5052289;28;19917;-71
2022/04/30 14:16:43;;;;;;;;;;;24.60;66.70;;;;;;5052194;28;20380;-72
2022/04/30 14:19:09;;;;;;;;;;;24.60;67.00;;;;;;5052302;28;19909;-71
2022/04/30 14:21:35;;;;;;;;;;;24.60;67.20;;;;;;5051960;28;19911;-71
2022/04/30 14:24:02;;;;;;;;;;;24.50;67.30;;;;;;5050389;28;20432;-71
2022/04/30 14:26:28;;;;;;;;;;;24.40;67.90;;;;;;5052343;28;19954;-72
2022/04/30 14:28:54;;;;;;;;;;;24.30;68.30;;;;;;5051923;28;19996;-73
2022/04/30 14:31:22;;;;;;;;;;;24.30;69.60;;;;;;5052136;28;19924;-71
2022/04/30 14:33:48;;;;;;;;;;;24.30;69.40;;;;;;5051507;28;20315;-71
2022/04/30 14:36:15;;;;;;;;;;;24.20;69.30;;;;;;5051439;28;19913;-71
2022/04/30 14:38:40;;;;;;;;;;;24.20;70.10;;;;;;5051628;28;19909;-71
2022/04/30 14:41:07;;;;;;;;;;;24.20;71.00;;;;;;5051854;28;20359;-71
2022/04/30 14:43:47;;;;;;;;;;;24.20;71.20;;;;;;5051677;28;19916;-72
2022/04/30 14:46:14;;;;;;;;;;;24.00;71.80;;;;;;5050351;28;20345;-72
2022/04/30 14:48:40;;;;;;;;;;;24.00;71.90;;;;;;5051029;28;19909;-73
2022/04/30 14:51:06;;;;;;;;;;;24.00;71.60;;;;;;5049525;28;19988;-71
2022/04/30 14:53:32;;;;;;;;;;;23.90;72.20;;;;;;5054306;28;19916;-70
2022/04/30 14:56:01;;;;;;;;;;;23.80;71.80;;;;;;5054748;28;19981;-72
2022/04/30 14:58:27;;;;;;;;;;;23.80;69.70;;;;;;5054875;28;19909;-73
2022/04/30 15:00:53;;;;;;;;;;;23.80;68.30;;;;;;5054567;28;19952;-71
2022/04/30 15:03:19;;;;;;;;;;;23.70;68.70;;;;;;5054584;28;19964;-72
2022/04/30 15:05:44;;;;;;;;;;;23.70;69.30;;;;;;5053166;28;19909;-72
2022/04/30 15:08:10;;;;;;;;;;;23.70;68.90;;;;;;5054094;28;19931;-70